Time;durP1;ratioP1;P1;durP2;ratioP2;P2;SDS_P1;SDS_P2;PMS_P1;PMS_P2;Temp;Humidity;BMP_temperature;BMP_pressure;BME280_temperature;BME280_humidity;BME280_pressure;Samples;Min_cycle;Max_cycle;Signal;HPM_P1;HPM_P2
2023/08/08 00:00:27;;;;;;;2.63;1.80;;;21.40;99.90;;;;;;5061163;28;20665;-51
2023/08/08 00:02:54;;;;;;;2.87;1.60;;;21.40;99.90;;;;;;5061419;28;20987;-51
2023/08/08 00:05:21;;;;;;;1.53;1.43;;;21.40;99.90;;;;;;5060037;28;20974;-46
2023/08/08 00:07:48;;;;;;;2.93;1.80;;;21.40;99.90;;;;;;5058417;28;20491;-50
2023/08/08 00:10:16;;;;;;;2.08;1.65;;;21.40;99.90;;;;;;5059617;28;20811;-50
2023/08/08 00:12:43;;;;;;;3.08;1.50;;;21.40;99.90;;;;;;5065093;28;21148;-48
2023/08/08 00:15:10;;;;;;;2.15;1.60;;;21.40;99.90;;;;;;5060290;28;20202;-54
2023/08/08 00:17:36;;;;;;;1.50;1.27;;;21.40;99.90;;;;;;5066958;28;20588;-50
2023/08/08 00:20:04;;;;;;;4.60;1.67;;;21.40;99.90;;;;;;5060855;28;20689;-49
2023/08/08 00:22:31;;;;;;;2.10;1.90;;;21.40;99.90;;;;;;5059682;28;20464;-48
2023/08/08 00:24:57;;;;;;;5.20;1.83;;;21.40;99.90;;;;;;5060038;28;20457;-52
2023/08/08 00:27:25;;;;;;;2.90;1.70;;;21.40;99.90;;;;;;5062753;28;20873;-50
2023/08/08 00:29:53;;;;;;;1.90;1.80;;;21.40;99.90;;;;;;5063513;28;20460;-51
2023/08/08 00:32:20;;;;;;;1.70;1.60;;;21.40;99.90;;;;;;5061100;28;20477;-52
2023/08/08 00:34:47;;;;;;;2.40;1.73;;;21.40;99.90;;;;;;5058829;28;20460;-46
2023/08/08 00:37:13;;;;;;;1.73;1.63;;;21.40;99.90;;;;;;5060329;28;20466;-49
2023/08/08 00:39:45;;;;;;;2.00;1.60;;;21.40;99.90;;;;;;5061635;28;20471;-54
2023/08/08 00:42:12;;;;;;;2.50;2.03;;;21.40;99.90;;;;;;5059986;28;20459;-46
2023/08/08 00:44:41;;;;;;;3.30;1.30;;;21.40;99.90;;;;;;5057795;28;20460;-50
2023/08/08 00:47:08;;;;;;;2.30;1.50;;;21.40;99.90;;;;;;5060615;28;20543;-55
2023/08/08 00:49:35;;;;;;;1.83;1.57;;;21.40;99.90;;;;;;5060996;28;20721;-50
2023/08/08 00:52:02;;;;;;;1.90;1.57;;;21.40;99.90;;;;;;5061898;28;21075;-48
2023/08/08 00:54:29;;;;;;;1.97;1.70;;;21.40;99.90;;;;;;5058859;28;20457;-52
2023/08/08 00:56:56;;;;;;;2.63;1.83;;;21.40;99.90;;;;;;5063660;28;20484;-52
2023/08/08 00:59:23;;;;;;;1.97;1.77;;;21.40;99.90;;;;;;5062132;28;20457;-53
2023/08/08 01:01:52;;;;;;;1.93;1.40;;;21.40;99.90;;;;;;5057988;28;20470;-52
2023/08/08 01:04:20;;;;;;;2.27;1.73;;;21.40;99.90;;;;;;5063285;28;20870;-53
2023/08/08 01:07:00;;;;;;;1.63;1.53;;;21.40;99.90;;;;;;5060931;28;20464;-50
2023/08/08 01:09:34;;;;;;;2.10;1.55;;;21.40;99.90;;;;;;5066092;28;20464;-51
2023/08/08 01:12:02;;;;;;;2.00;1.37;;;21.40;99.90;;;;;;5059017;28;20218;-50
2023/08/08 01:14:31;;;;;;;1.77;1.35;;;21.40;99.90;;;;;;5061527;28;20455;-54
2023/08/08 01:17:00;;;;;;;2.60;1.67;;;21.40;99.90;;;;;;5066803;28;20191;-51
2023/08/08 01:19:29;;;;;;;2.00;1.60;;;21.40;99.90;;;;;;5062166;28;20974;-49
2023/08/08 01:22:00;;;;;;;1.73;1.50;;;21.40;99.90;;;;;;5068431;28;20731;-50
2023/08/08 01:24:30;;;;;;;2.30;1.87;;;21.30;99.90;;;;;;5064224;28;20475;-54
2023/08/08 01:26:57;;;;;;;1.50;1.40;;;21.30;99.90;;;;;;5063653;28;20643;-49
2023/08/08 01:29:23;;;;;;;1.70;1.50;;;21.30;99.90;;;;;;5060041;28;20468;-51
2023/08/08 01:31:50;;;;;;;2.35;1.67;;;21.30;99.90;;;;;;5062789;28;20503;-53
2023/08/08 01:34:17;;;;;;;1.70;1.60;;;21.30;99.90;;;;;;5061554;28;20193;-51
2023/08/08 01:36:48;;;;;;;2.30;1.60;;;21.40;99.90;;;;;;5058788;28;20475;-53
2023/08/08 01:39:18;;;;;;;1.70;1.60;;;21.30;99.90;;;;;;5060535;28;21643;-52
2023/08/08 01:41:48;;;;;;;1.88;1.67;;;21.30;99.90;;;;;;5060747;28;20202;-51
2023/08/08 01:44:16;;;;;;;1.40;1.23;;;21.30;99.90;;;;;;5065008;28;21258;-51
2023/08/08 01:46:43;;;;;;;1.83;1.63;;;21.30;99.90;;;;;;5061624;28;20459;-58
2023/08/08 01:49:10;;;;;;;1.50;1.30;;;21.30;99.90;;;;;;5062208;28;20467;-47
2023/08/08 01:51:36;;;;;;;1.90;1.70;;;21.30;99.90;;;;;;5059212;28;20479;-53
2023/08/08 01:54:03;;;;;;;2.13;1.90;;;21.30;99.90;;;;;;5057588;28;20456;-49
2023/08/08 01:56:30;;;;;;;2.10;1.70;;;21.30;99.90;;;;;;5060360;28;20484;-48
2023/08/08 01:58:58;;;;;;;3.40;2.17;;;21.30;99.90;;;;;;5060124;28;20467;-50
2023/08/08 02:01:25;;;;;;;1.80;1.40;;;21.30;99.90;;;;;;5053991;28;20460;-57
2023/08/08 02:03:51;;;;;;;1.60;1.37;;;21.30;99.90;;;;;;5062017;28;20515;-53
2023/08/08 02:06:18;;;;;;;1.70;1.50;;;21.30;99.90;;;;;;5056559;28;20456;-45
2023/08/08 02:08:46;;;;;;;1.75;1.35;;;21.30;99.90;;;;;;5058190;28;20471;-53
2023/08/08 02:11:12;;;;;;;1.85;1.75;;;21.30;99.90;;;;;;5057895;28;20586;-49
2023/08/08 02:13:39;;;;;;;1.40;1.30;;;21.30;99.90;;;;;;5060576;28;20221;-52
2023/08/08 02:16:07;;;;;;;2.00;1.73;;;21.30;99.90;;;;;;5058976;28;20523;-55
2023/08/08 02:18:34;;;;;;;1.70;1.50;;;21.30;99.90;;;;;;5060140;28;20949;-46
2023/08/08 02:21:00;;;;;;;2.20;2.00;;;21.30;99.90;;;;;;5058762;28;20991;-54
2023/08/08 02:23:27;;;;;;;1.70;1.30;;;21.30;99.90;;;;;;5060982;28;20460;-51
2023/08/08 02:25:54;;;;;;;1.50;1.40;;;21.30;99.90;;;;;;5060292;28;20199;-54
2023/08/08 02:28:20;;;;;;;1.97;1.60;;;21.30;99.90;;;;;;5062879;28;20774;-57
2023/08/08 02:30:47;;;;;;;1.60;1.50;;;21.30;99.90;;;;;;5059908;28;20486;-54
2023/08/08 02:33:15;;;;;;;2.43;1.30;;;21.30;99.90;;;;;;5063803;28;20482;-50
2023/08/08 02:35:42;;;;;;;1.77;1.67;;;21.30;99.90;;;;;;5061637;28;20488;-48
2023/08/08 02:38:09;;;;;;;1.77;1.57;;;21.30;99.90;;;;;;5064967;28;20193;-58
2023/08/08 02:40:35;;;;;;;2.53;1.55;;;21.30;99.90;;;;;;5064813;28;20836;-53
2023/08/08 02:43:02;;;;;;;2.27;2.07;;;21.30;99.90;;;;;;5060031;28;20539;-51
2023/08/08 02:45:29;;;;;;;2.10;1.50;;;21.30;99.90;;;;;;5057017;28;20489;-54
2023/08/08 02:47:56;;;;;;;1.50;1.20;;;21.30;99.90;;;;;;5062566;28;20461;-52
2023/08/08 02:50:24;;;;;;;1.90;1.60;;;21.30;99.90;;;;;;5065097;28;20460;-55
2023/08/08 02:52:51;;;;;;;2.67;1.80;;;21.30;99.90;;;;;;5061158;28;20475;-53
2023/08/08 02:55:18;;;;;;;2.27;1.60;;;21.30;99.90;;;;;;5061053;28;20543;-52
2023/08/08 02:57:45;;;;;;;1.60;1.40;;;21.20;99.90;;;;;;5062332;28;20563;-56
2023/08/08 03:00:13;;;;;;;1.30;1.20;;;21.20;99.90;;;;;;5061320;28;20856;-53
2023/08/08 03:02:39;;;;;;;2.03;1.93;;;21.20;99.90;;;;;;5065105;28;20469;-55
2023/08/08 03:05:07;;;;;;;2.30;1.87;;;21.20;99.90;;;;;;5062479;28;20476;-58
2023/08/08 03:07:35;;;;;;;2.38;2.17;;;21.20;99.90;;;;;;5061937;28;20467;-54
2023/08/08 03:10:02;;;;;;;1.73;1.60;;;21.20;99.90;;;;;;5064489;28;20195;-53
2023/08/08 03:12:29;;;;;;;2.67;1.60;;;21.20;99.90;;;;;;5061070;28;20495;-52
2023/08/08 03:14:56;;;;;;;1.63;1.52;;;21.20;99.90;;;;;;5062869;28;20461;-51
2023/08/08 03:17:23;;;;;;;1.60;1.33;;;21.20;99.90;;;;;;5061921;28;20208;-56
2023/08/08 03:19:50;;;;;;;1.55;1.45;;;21.20;99.90;;;;;;5064554;28;20471;-48
2023/08/08 03:22:16;;;;;;;2.00;1.80;;;21.20;99.90;;;;;;5064585;28;20213;-54
2023/08/08 03:24:44;;;;;;;2.13;1.93;;;21.20;99.90;;;;;;5062685;28;20963;-55
2023/08/08 03:27:11;;;;;;;2.33;1.30;;;21.20;99.90;;;;;;5057132;28;20464;-51
2023/08/08 03:29:38;;;;;;;1.45;1.17;;;21.20;99.90;;;;;;5062956;28;21276;-48
2023/08/08 03:32:05;;;;;;;1.35;1.17;;;21.20;99.90;;;;;;5062582;28;20186;-56
2023/08/08 03:34:32;;;;;;;2.35;1.77;;;21.20;99.90;;;;;;5061309;28;20650;-49
2023/08/08 03:36:59;;;;;;;1.70;1.60;;;21.20;99.90;;;;;;5063416;28;20211;-55
2023/08/08 03:39:26;;;;;;;1.65;1.45;;;21.20;99.90;;;;;;5062781;28;20808;-54
2023/08/08 03:41:54;;;;;;;1.83;1.60;;;21.20;99.90;;;;;;5062487;28;20186;-54
2023/08/08 03:44:21;;;;;;;1.95;1.75;;;21.20;99.90;;;;;;5060132;28;20460;-54
2023/08/08 03:46:48;;;;;;;1.83;1.52;;;21.20;99.90;;;;;;5058186;28;20190;-54
2023/08/08 03:49:14;;;;;;;1.63;1.42;;;21.20;99.90;;;;;;5059327;28;20203;-52
2023/08/08 03:51:41;;;;;;;1.60;1.50;;;21.20;99.90;;;;;;5060960;28;20194;-51
2023/08/08 03:54:08;;;;;;;2.95;1.80;;;21.20;99.90;;;;;;5059695;28;20484;-56
2023/08/08 03:56:35;;;;;;;1.60;1.45;;;21.20;99.90;;;;;;5062821;28;20595;-57
2023/08/08 03:59:03;;;;;;;1.37;1.20;;;21.20;99.90;;;;;;5062648;28;20198;-52
2023/08/08 04:01:29;;;;;;;2.00;1.37;;;21.20;99.90;;;;;;5060231;28;20455;-51
2023/08/08 04:03:56;;;;;;;1.67;1.58;;;21.20;99.90;;;;;;5066784;28;20480;-56
2023/08/08 04:06:23;;;;;;;1.80;1.70;;;21.20;99.90;;;;;;5063912;28;20225;-57
2023/08/08 04:08:50;;;;;;;1.63;1.25;;;21.20;99.90;;;;;;5061382;28;20209;-52
2023/08/08 04:11:16;;;;;;;1.85;1.50;;;21.20;99.90;;;;;;5066579;28;20614;-49
2023/08/08 04:13:43;;;;;;;2.38;2.10;;;21.20;99.90;;;;;;5063190;28;20205;-49
2023/08/08 04:16:11;;;;;;;2.00;1.80;;;21.20;99.90;;;;;;5057800;28;20199;-54
2023/08/08 04:18:38;;;;;;;1.48;1.30;;;21.20;99.90;;;;;;5062124;28;20741;-53
2023/08/08 04:21:04;;;;;;;1.98;1.77;;;21.20;99.90;;;;;;5061006;28;20194;-48
2023/08/08 04:23:31;;;;;;;1.80;1.52;;;21.20;99.90;;;;;;5063415;28;20194;-50
2023/08/08 04:25:58;;;;;;;1.65;1.55;;;21.20;99.90;;;;;;5059251;28;20487;-53
2023/08/08 04:28:24;;;;;;;1.45;1.33;;;21.20;99.90;;;;;;5060717;28;20202;-53
2023/08/08 04:30:51;;;;;;;1.40;1.23;;;21.10;99.90;;;;;;5060533;28;20209;-53
2023/08/08 04:33:19;;;;;;;1.40;1.30;;;21.20;99.90;;;;;;5061519;28;20685;-53
2023/08/08 04:35:47;;;;;;;1.50;1.40;;;21.20;99.90;;;;;;5061558;28;20455;-56
2023/08/08 04:38:14;;;;;;;1.40;1.17;;;21.10;99.90;;;;;;5056785;28;20206;-51
2023/08/08 04:40:41;;;;;;;1.75;1.13;;;21.10;99.90;;;;;;5061150;28;20808;-50
2023/08/08 04:43:08;;;;;;;2.33;1.90;;;21.10;99.90;;;;;;5060029;28;20206;-54
2023/08/08 04:45:35;;;;;;;1.83;1.65;;;21.10;99.90;;;;;;5060041;28;20191;-53
2023/08/08 04:48:01;;;;;;;1.83;1.73;;;21.10;99.90;;;;;;5061098;28;20209;-53
2023/08/08 04:50:29;;;;;;;2.20;1.65;;;21.10;99.90;;;;;;5056937;28;20203;-52
2023/08/08 04:52:56;;;;;;;1.92;1.45;;;21.10;99.90;;;;;;5056863;28;20648;-55
2023/08/08 04:55:23;;;;;;;1.73;1.63;;;21.10;99.90;;;;;;5055879;28;20186;-56
2023/08/08 04:57:49;;;;;;;1.50;1.38;;;21.10;99.90;;;;;;5061182;28;20487;-47
2023/08/08 05:00:17;;;;;;;1.83;1.33;;;21.10;99.90;;;;;;5059718;28;20202;-53
2023/08/08 05:02:44;;;;;;;1.40;1.23;;;21.10;99.90;;;;;;5063218;28;20460;-48
2023/08/08 05:05:10;;;;;;;1.52;1.42;;;21.10;99.90;;;;;;5061502;28;20217;-51
2023/08/08 05:07:38;;;;;;;2.30;2.10;;;21.10;99.90;;;;;;5062466;28;20197;-54
2023/08/08 05:10:06;;;;;;;1.55;1.40;;;21.10;99.90;;;;;;5063551;28;20205;-51
2023/08/08 05:12:33;;;;;;;2.00;1.90;;;21.10;99.90;;;;;;5062175;28;20188;-55
2023/08/08 05:15:00;;;;;;;1.63;1.40;;;21.10;99.90;;;;;;5059852;28;20219;-50
2023/08/08 05:17:26;;;;;;;1.55;1.25;;;21.10;99.90;;;;;;5060128;28;20693;-52
2023/08/08 05:19:53;;;;;;;1.63;1.30;;;21.10;99.90;;;;;;5061061;28;20317;-51
2023/08/08 05:22:20;;;;;;;1.70;1.48;;;21.10;99.90;;;;;;5061727;28;20210;-56
2023/08/08 05:24:48;;;;;;;1.75;1.58;;;21.10;99.90;;;;;;5059214;28;20199;-52
2023/08/08 05:27:15;;;;;;;1.55;1.45;;;21.10;99.90;;;;;;5060821;28;20201;-53
2023/08/08 05:29:41;;;;;;;1.35;1.25;;;21.10;99.90;;;;;;5056090;28;21832;-54
2023/08/08 05:32:08;;;;;;;1.70;1.60;;;21.10;99.90;;;;;;5053209;28;20201;-50
2023/08/08 05:34:35;;;;;;;1.50;1.38;;;21.10;99.90;;;;;;5059812;28;20800;-50
2023/08/08 05:37:03;;;;;;;1.83;1.40;;;21.10;99.90;;;;;;5058423;28;20198;-55
2023/08/08 05:39:31;;;;;;;1.97;1.57;;;21.10;99.90;;;;;;5057796;28;20680;-50
2023/08/08 05:41:59;;;;;;;2.20;1.60;;;21.10;99.90;;;;;;5063415;28;20936;-55
2023/08/08 05:44:25;;;;;;;1.50;1.40;;;21.10;99.90;;;;;;5058733;28;20202;-53
2023/08/08 05:46:53;;;;;;;1.70;1.50;;;21.10;99.90;;;;;;5063965;28;20193;-48
2023/08/08 05:49:19;;;;;;;2.05;1.85;;;21.10;99.90;;;;;;5058257;28;20202;-57
2023/08/08 05:51:46;;;;;;;1.77;1.60;;;21.10;99.90;;;;;;5063812;28;20202;-54
2023/08/08 05:54:13;;;;;;;1.50;1.40;;;21.10;99.90;;;;;;5062386;28;20217;-52
2023/08/08 05:56:39;;;;;;;1.55;1.45;;;21.10;99.90;;;;;;5056978;28;20684;-49
2023/08/08 05:59:07;;;;;;;2.10;1.73;;;21.10;99.90;;;;;;5064198;28;20193;-48
2023/08/08 06:01:35;;;;;;;1.92;1.73;;;21.10;99.90;;;;;;5059335;28;20198;-51
2023/08/08 06:04:03;;;;;;;1.60;1.27;;;21.10;99.90;;;;;;5065317;28;20210;-54
2023/08/08 06:06:30;;;;;;;1.73;1.38;;;21.10;99.90;;;;;;5055259;28;20411;-60
2023/08/08 06:08:56;;;;;;;1.65;1.48;;;21.10;99.90;;;;;;5061172;28;20202;-54
2023/08/08 06:11:23;;;;;;;1.67;1.55;;;21.10;99.90;;;;;;5069076;28;20205;-54
2023/08/08 06:13:50;;;;;;;1.50;1.20;;;21.10;99.90;;;;;;5058905;28;20304;-52
2023/08/08 06:16:18;;;;;;;1.83;1.60;;;21.10;99.90;;;;;;5064990;28;20205;-51
2023/08/08 06:18:45;;;;;;;4.63;1.40;;;21.10;99.90;;;;;;5065350;28;20804;-57
2023/08/08 06:21:12;;;;;;;2.90;1.40;;;21.10;99.90;;;;;;5063454;28;20199;-49
2023/08/08 06:23:38;;;;;;;1.47;1.20;;;21.10;99.90;;;;;;5066465;28;20550;-49
2023/08/08 06:26:05;;;;;;;4.45;1.40;;;21.10;99.90;;;;;;5054178;28;20471;-51
2023/08/08 06:28:32;;;;;;;2.30;1.30;;;21.10;99.90;;;;;;5066425;28;20523;-49
2023/08/08 06:30:59;;;;;;;2.78;1.60;;;21.10;99.90;;;;;;5058424;28;20189;-54
2023/08/08 06:33:28;;;;;;;3.00;1.40;;;21.10;99.90;;;;;;5058250;28;20210;-49
2023/08/08 06:35:55;;;;;;;2.45;1.38;;;21.10;99.90;;;;;;5063859;28;20194;-53
2023/08/08 06:38:21;;;;;;;9.35;1.45;;;21.10;99.90;;;;;;5046918;28;20201;-52
2023/08/08 06:40:49;;;;;;;4.82;2.42;;;21.10;99.90;;;;;;5065652;28;20625;-47
2023/08/08 06:43:15;;;;;;;3.95;2.72;;;21.10;99.90;;;;;;5061570;28;20202;-54
2023/08/08 06:45:42;;;;;;;3.80;2.25;;;21.10;99.90;;;;;;5056035;28;20699;-51
2023/08/08 06:48:10;;;;;;;3.90;2.90;;;21.10;99.90;;;;;;5059941;28;20198;-55
2023/08/08 06:50:38;;;;;;;5.33;4.83;;;21.10;99.90;;;;;;5060519;28;20558;-48
2023/08/08 06:53:05;;;;;;;7.15;3.90;;;21.10;99.90;;;;;;5059781;28;20469;-53
2023/08/08 06:55:32;;;;;;;6.80;4.03;;;21.10;99.90;;;;;;5063160;28;20230;-56
2023/08/08 06:57:59;;;;;;;11.03;4.00;;;21.10;99.90;;;;;;5066082;28;20222;-54
2023/08/08 07:00:27;;;;;;;4.32;3.92;;;21.10;99.90;;;;;;5059748;28;20448;-52
2023/08/08 07:02:53;;;;;;;8.38;5.43;;;21.10;99.90;;;;;;5064729;28;20191;-56
2023/08/08 07:05:22;;;;;;;6.53;4.13;;;21.00;99.90;;;;;;5061310;28;20217;-46
2023/08/08 07:07:50;;;;;;;5.55;4.35;;;21.00;99.90;;;;;;5058530;28;20493;-52
2023/08/08 07:10:17;;;;;;;4.70;4.30;;;21.00;99.90;;;;;;5059651;28;20221;-51
2023/08/08 07:12:43;;;;;;;5.95;4.88;;;21.00;99.90;;;;;;5064767;28;21300;-51
2023/08/08 07:15:11;;;;;;;6.27;4.60;;;21.00;99.90;;;;;;5059900;28;20237;-53
2023/08/08 07:17:37;;;;;;;7.30;5.50;;;21.00;99.90;;;;;;5061216;28;20969;-57
2023/08/08 07:20:05;;;;;;;10.10;6.18;;;21.00;99.90;;;;;;5066815;28;20501;-49
2023/08/08 07:22:32;;;;;;;6.90;6.15;;;21.00;99.90;;;;;;5068012;28;20244;-50
2023/08/08 07:25:01;;;;;;;7.13;6.50;;;21.00;99.90;;;;;;5059170;28;20553;-52
2023/08/08 07:27:28;;;;;;;6.23;5.73;;;21.00;99.90;;;;;;5058769;28;20464;-57
2023/08/08 07:29:54;;;;;;;8.07;5.57;;;21.00;99.90;;;;;;5057056;28;20460;-47
2023/08/08 07:32:21;;;;;;;8.17;6.13;;;21.00;99.90;;;;;;5062053;28;20661;-49
2023/08/08 07:34:48;;;;;;;7.43;6.73;;;21.00;99.90;;;;;;5065245;28;20825;-58
2023/08/08 07:37:15;;;;;;;7.90;6.20;;;21.00;99.90;;;;;;5054819;28;20471;-57
2023/08/08 07:39:42;;;;;;;7.40;6.47;;;21.00;99.90;;;;;;5063412;28;20952;-52
2023/08/08 07:42:10;;;;;;;7.90;6.93;;;21.00;99.90;;;;;;5062076;28;20472;-52
2023/08/08 07:44:38;;;;;;;8.98;7.13;;;21.00;99.90;;;;;;5064578;28;20488;-50
2023/08/08 07:47:05;;;;;;;8.50;6.85;;;21.00;99.90;;;;;;5060294;28;20202;-47
2023/08/08 07:49:32;;;;;;;8.77;7.23;;;21.00;99.90;;;;;;5059946;28;20281;-55
2023/08/08 07:51:59;;;;;;;9.83;7.30;;;21.00;99.90;;;;;;5058346;28;21209;-48
2023/08/08 07:54:25;;;;;;;9.15;7.25;;;21.00;99.90;;;;;;5056470;28;20773;-50
2023/08/08 07:56:52;;;;;;;8.10;7.07;;;21.00;99.90;;;;;;5052373;28;20221;-51
2023/08/08 07:59:20;;;;;;;8.43;6.93;;;21.00;99.90;;;;;;5062872;28;20194;-55
2023/08/08 08:01:47;;;;;;;7.88;7.07;;;21.00;99.90;;;;;;5062558;28;20198;-51
2023/08/08 08:04:13;;;;;;;11.50;7.88;;;21.00;99.90;;;;;;5066511;28;20206;-47
2023/08/08 08:06:40;;;;;;;8.63;7.63;;;21.00;99.90;;;;;;5064788;28;20702;-52
2023/08/08 08:09:07;;;;;;;9.02;6.82;;;21.00;99.90;;;;;;5064683;28;20199;-51
2023/08/08 08:11:34;;;;;;;8.85;7.75;;;21.00;99.90;;;;;;5064824;28;20183;-50
2023/08/08 08:14:01;;;;;;;7.45;6.78;;;21.00;99.90;;;;;;5066244;28;20562;-47
2023/08/08 08:16:29;;;;;;;8.10;7.25;;;21.00;99.90;;;;;;5063325;28;20229;-53
2023/08/08 08:18:56;;;;;;;7.47;6.87;;;21.00;99.90;;;;;;5064501;28;20208;-55
2023/08/08 08:21:23;;;;;;;7.50;6.75;;;21.00;99.90;;;;;;5063626;28;20461;-49
2023/08/08 08:23:49;;;;;;;9.63;6.78;;;21.00;99.90;;;;;;5063969;28;20205;-49
2023/08/08 08:26:16;;;;;;;11.35;7.15;;;21.00;99.90;;;;;;5058732;28;20275;-53
2023/08/08 08:28:43;;;;;;;7.37;6.60;;;21.00;99.90;;;;;;5062732;28;20205;-53
2023/08/08 08:31:10;;;;;;;8.32;6.68;;;21.10;99.90;;;;;;5064709;28;20461;-54
2023/08/08 08:33:38;;;;;;;7.93;7.23;;;21.00;99.90;;;;;;5063763;28;20699;-53
2023/08/08 08:36:05;;;;;;;6.85;6.25;;;21.10;99.90;;;;;;5065327;28;20494;-54
2023/08/08 08:38:31;;;;;;;6.90;6.25;;;21.00;99.90;;;;;;5062925;28;20608;-53
2023/08/08 08:40:59;;;;;;;6.70;6.10;;;21.00;99.90;;;;;;5064194;28;20198;-51
2023/08/08 08:43:25;;;;;;;6.40;5.70;;;21.10;99.90;;;;;;5063849;28;20677;-50
2023/08/08 08:45:54;;;;;;;8.18;5.72;;;21.00;99.90;;;;;;5064611;28;20468;-55
2023/08/08 08:48:22;;;;;;;8.25;6.85;;;21.00;99.90;;;;;;5064657;28;20197;-55
2023/08/08 08:50:50;;;;;;;6.75;6.05;;;21.10;99.90;;;;;;5066500;28;20201;-49
2023/08/08 08:53:18;;;;;;;6.90;6.05;;;21.00;99.90;;;;;;5064654;28;20205;-55
2023/08/08 08:55:45;;;;;;;7.15;6.57;;;21.10;99.90;;;;;;5063675;28;20308;-54
2023/08/08 08:58:15;;;;;;;6.40;5.90;;;21.10;99.90;;;;;;5067374;28;20268;-51
2023/08/08 09:00:42;;;;;;;7.40;6.63;;;21.00;99.90;;;;;;5065911;28;21010;-51
2023/08/08 09:03:09;;;;;;;8.27;6.68;;;21.00;99.90;;;;;;5067793;28;20527;-51
2023/08/08 09:05:37;;;;;;;7.10;6.50;;;21.00;99.90;;;;;;5066418;28;20206;-53
2023/08/08 09:08:06;;;;;;;6.45;5.68;;;21.00;99.90;;;;;;5064483;28;20190;-48
2023/08/08 09:10:34;;;;;;;6.95;6.15;;;21.00;99.90;;;;;;5063206;28;20186;-51
2023/08/08 09:13:01;;;;;;;7.57;6.40;;;21.00;99.90;;;;;;5065279;28;20706;-50
2023/08/08 09:15:31;;;;;;;6.75;6.15;;;21.00;99.90;;;;;;5058017;28;20226;-57
2023/08/08 09:17:58;;;;;;;8.82;6.20;;;21.00;99.90;;;;;;5061220;28;20218;-49
2023/08/08 09:20:29;;;;;;;6.68;6.13;;;21.00;99.90;;;;;;5060214;28;20195;-56
2023/08/08 09:22:55;;;;;;;6.45;5.95;;;21.00;99.90;;;;;;5064083;28;20232;-54
2023/08/08 09:25:24;;;;;;;6.10;5.70;;;21.00;99.90;;;;;;5058563;28;20215;-54
2023/08/08 09:27:52;;;;;;;7.30;6.60;;;21.00;99.90;;;;;;5062571;28;20661;-54
2023/08/08 09:30:18;;;;;;;6.40;5.80;;;21.00;99.90;;;;;;5062863;28;20859;-55
2023/08/08 09:32:45;;;;;;;7.17;6.57;;;21.00;99.90;;;;;;5062840;28;20467;-52
2023/08/08 09:35:12;;;;;;;5.68;5.18;;;21.00;99.90;;;;;;5064652;28;21282;-51
2023/08/08 09:37:39;;;;;;;8.40;6.65;;;21.00;99.90;;;;;;5060064;28;20194;-58
2023/08/08 09:40:07;;;;;;;7.32;6.72;;;21.00;99.90;;;;;;5061299;28;20205;-47
2023/08/08 09:42:36;;;;;;;6.22;5.72;;;21.00;99.90;;;;;;5063296;28;20198;-51
2023/08/08 09:45:03;;;;;;;6.28;5.72;;;21.00;99.90;;;;;;5062405;28;20284;-56
2023/08/08 09:47:31;;;;;;;7.90;6.03;;;21.00;99.90;;;;;;5062614;28;20585;-55
2023/08/08 09:50:00;;;;;;;8.80;5.70;;;21.10;99.90;;;;;;5062627;28;20193;-50
2023/08/08 09:52:28;;;;;;;5.90;5.40;;;21.00;99.90;;;;;;5061761;28;20701;-53
2023/08/08 09:54:56;;;;;;;6.47;5.97;;;21.00;99.90;;;;;;5052145;28;20471;-57
2023/08/08 09:57:23;;;;;;;5.70;5.00;;;21.00;99.90;;;;;;5054106;28;20749;-52
2023/08/08 09:59:52;;;;;;;6.20;5.60;;;21.00;99.90;;;;;;5059266;28;20456;-52
2023/08/08 10:02:20;;;;;;;4.82;4.43;;;21.00;99.90;;;;;;5057758;28;20456;-53
2023/08/08 10:04:47;;;;;;;5.05;4.20;;;21.00;99.90;;;;;;5060241;28;20206;-51
2023/08/08 10:07:14;;;;;;;3.90;3.45;;;21.00;99.90;;;;;;5061346;28;20531;-49
2023/08/08 10:09:42;;;;;;;8.00;2.50;;;21.00;99.90;;;;;;5056945;28;20217;-52
2023/08/08 10:12:09;;;;;;;5.50;3.10;;;21.00;99.90;;;;;;5059728;28;20866;-50
2023/08/08 10:14:37;;;;;;;3.60;2.93;;;20.90;99.90;;;;;;5065112;28;20240;-50
2023/08/08 10:17:06;;;;;;;3.97;2.67;;;20.90;99.90;;;;;;5064878;28;20471;-50
2023/08/08 10:19:35;;;;;;;6.57;3.15;;;20.90;99.90;;;;;;5066336;28;20276;-47
2023/08/08 10:22:05;;;;;;;4.95;4.00;;;20.90;99.90;;;;;;5055558;28;20229;-58
2023/08/08 10:24:35;;;;;;;4.07;2.40;;;20.90;99.90;;;;;;5050757;28;20786;-63
2023/08/08 10:27:04;;;;;;;8.23;3.20;;;21.00;99.90;;;;;;5057232;28;20250;-69
2023/08/08 10:29:32;;;;;;;3.45;2.30;;;21.00;99.90;;;;;;5060252;28;20456;-50
2023/08/08 10:32:01;;;;;;;3.70;2.43;;;21.00;99.90;;;;;;5062456;28;20190;-49
2023/08/08 10:34:38;;;;;;;7.80;2.40;;;21.00;99.90;;;;;;5063699;28;21456;-54
2023/08/08 10:37:05;;;;;;;3.70;2.10;;;20.90;99.90;;;;;;5065784;28;20455;-61
2023/08/08 10:39:32;;;;;;;2.20;2.00;;;21.00;99.90;;;;;;5058591;28;20468;-56
2023/08/08 10:42:03;;;;;;;6.00;1.97;;;21.00;99.90;;;;;;5062173;28;20464;-59
2023/08/08 10:44:30;;;;;;;2.30;2.08;;;21.00;99.90;;;;;;5053662;28;20439;-54
2023/08/08 10:46:57;;;;;;;6.97;2.25;;;21.00;99.90;;;;;;5060655;28;20201;-59
2023/08/08 10:49:24;;;;;;;3.40;1.92;;;21.00;99.80;;;;;;5056853;28;20201;-64
2023/08/08 10:51:52;;;;;;;3.22;1.70;;;21.00;99.50;;;;;;5055599;28;20197;-56
2023/08/08 10:54:22;;;;;;;3.20;1.83;;;21.00;99.60;;;;;;5054549;28;20658;-54
2023/08/08 10:56:50;;;;;;;3.73;2.07;;;21.00;99.60;;;;;;5053831;28;20495;-56
2023/08/08 10:59:18;;;;;;;4.77;2.77;;;21.10;99.70;;;;;;5054997;28;20832;-55
2023/08/08 11:01:51;;;;;;;4.80;2.33;;;21.10;99.90;;;;;;5055024;28;20468;-58
2023/08/08 11:04:19;;;;;;;3.20;1.80;;;21.10;99.90;;;;;;5060232;28;20465;-56
2023/08/08 11:06:46;;;;;;;2.13;1.93;;;21.10;99.80;;;;;;5058989;28;20738;-55
2023/08/08 11:09:15;;;;;;;5.17;2.40;;;21.20;99.90;;;;;;5064847;28;20468;-49
2023/08/08 11:11:43;;;;;;;10.70;2.30;;;21.20;99.90;;;;;;5063377;28;20651;-58
2023/08/08 11:14:11;;;;;;;3.03;1.70;;;21.20;99.70;;;;;;5055664;28;20468;-60
2023/08/08 11:16:38;;;;;;;7.20;2.10;;;21.20;99.70;;;;;;5059175;28;20480;-55
2023/08/08 11:19:05;;;;;;;4.77;1.80;;;21.30;99.70;;;;;;5061086;28;20885;-56
2023/08/08 11:21:35;;;;;;;2.10;1.73;;;21.30;99.70;;;;;;5058803;28;20464;-56
2023/08/08 11:24:01;;;;;;;12.30;2.63;;;21.30;99.60;;;;;;5053609;28;20732;-56
2023/08/08 11:26:31;;;;;;;1.97;1.67;;;21.30;99.50;;;;;;5053154;28;20468;-56
2023/08/08 11:28:59;;;;;;;3.43;1.57;;;21.30;99.50;;;;;;5062581;28;20460;-54
2023/08/08 11:31:26;;;;;;;2.80;1.63;;;21.30;99.40;;;;;;5065987;28;20453;-57
2023/08/08 11:33:54;;;;;;;7.50;2.27;;;21.40;99.50;;;;;;5068177;28;20804;-54
2023/08/08 11:36:22;;;;;;;3.63;1.60;;;21.40;99.60;;;;;;5064904;28;20484;-57
2023/08/08 11:38:49;;;;;;;4.33;1.80;;;21.40;99.60;;;;;;5063500;28;20455;-58
2023/08/08 11:41:17;;;;;;;4.23;1.50;;;21.40;99.60;;;;;;5063407;28;20458;-50
2023/08/08 11:43:46;;;;;;;3.47;1.90;;;21.40;99.70;;;;;;5065936;28;20975;-53
2023/08/08 11:46:13;;;;;;;2.43;2.07;;;21.40;99.70;;;;;;5063596;28;20459;-54
2023/08/08 11:48:40;;;;;;;2.80;1.67;;;21.40;99.70;;;;;;5068863;28;20486;-58
2023/08/08 11:51:09;;;;;;;2.50;1.60;;;21.50;99.90;;;;;;5056537;28;20461;-56
2023/08/08 11:53:36;;;;;;;2.50;1.50;;;21.50;99.80;;;;;;5065627;28;20448;-56
2023/08/08 11:56:04;;;;;;;3.33;1.57;;;21.50;99.90;;;;;;5055738;28;20625;-58
2023/08/08 11:58:31;;;;;;;2.40;2.10;;;21.50;99.90;;;;;;5059198;28;20464;-56
2023/08/08 12:00:59;;;;;;;2.90;1.97;;;21.60;99.80;;;;;;5057186;28;20954;-55
2023/08/08 12:03:26;;;;;;;4.83;1.70;;;21.60;99.50;;;;;;5053142;28;20451;-57
2023/08/08 12:05:53;;;;;;;3.30;2.00;;;21.60;99.30;;;;;;5061651;28;20819;-57
2023/08/08 12:08:20;;;;;;;4.90;1.93;;;21.60;99.20;;;;;;5059899;28;20463;-56
2023/08/08 12:10:52;;;;;;;8.53;2.60;;;21.50;99.00;;;;;;5061415;28;20456;-56
2023/08/08 12:13:21;;;;;;;2.13;1.70;;;21.60;99.10;;;;;;5060677;28;20471;-64
2023/08/08 12:15:48;;;;;;;2.73;1.97;;;21.60;99.10;;;;;;5054514;28;20927;-54
2023/08/08 12:18:19;;;;;;;3.30;2.03;;;21.60;99.20;;;;;;5059023;28;20956;-57
2023/08/08 12:20:46;;;;;;;2.77;1.50;;;21.60;99.30;;;;;;5054718;28;20844;-52
2023/08/08 12:23:13;;;;;;;7.00;2.17;;;21.60;99.40;;;;;;5055746;28;20472;-59
2023/08/08 12:25:40;;;;;;;2.60;1.90;;;21.60;99.40;;;;;;5052989;28;24360;-58
2023/08/08 12:28:07;;;;;;;1.70;1.30;;;21.70;99.50;;;;;;5053444;28;20463;-53
2023/08/08 12:30:34;;;;;;;2.60;1.93;;;21.70;99.50;;;;;;5052625;28;20462;-57
2023/08/08 12:33:01;;;;;;;3.33;2.43;;;21.70;99.50;;;;;;5056186;28;20464;-54
2023/08/08 12:35:29;;;;;;;3.10;1.90;;;21.70;99.50;;;;;;5053599;28;20484;-56
2023/08/08 12:37:56;;;;;;;1.93;1.57;;;21.70;99.50;;;;;;5057936;28;20990;-57
2023/08/08 12:40:25;;;;;;;2.40;1.60;;;21.70;99.80;;;;;;5058499;28;20853;-57
2023/08/08 12:42:51;;;;;;;5.40;2.17;;;21.70;99.50;;;;;;5058510;28;20471;-53
2023/08/08 12:45:18;;;;;;;3.53;1.73;;;21.80;99.50;;;;;;5052196;28;20452;-56